sensor_id;sensor_type;location;lat;lon;timestamp;pressure;altitude;pressure_sealevel;temperature;humidity
19150;BME280;9707;49.158;8.632;2023-03-21T00:00:53;100681.50;;;20.90;34.25
19150;BME280;9707;49.158;8.632;2023-03-21T00:03:18;100678.81;;;20.90;34.38
19150;BME280;9707;49.158;8.632;2023-03-21T00:05:43;100680.63;;;20.90;33.99
19150;BME280;9707;49.158;8.632;2023-03-21T00:08:16;100680.63;;;20.90;34.47
19150;BME280;9707;49.158;8.632;2023-03-21T00:10:41;100674.22;;;20.91;34.40
19150;BME280;9707;49.158;8.632;2023-03-21T00:13:06;100676.94;;;20.91;34.28
19150;BME280;9707;49.158;8.632;2023-03-21T00:15:32;100675.22;;;20.90;34.09
19150;BME280;9707;49.158;8.632;2023-03-21T00:17:57;100668.03;;;20.89;34.15
19150;BME280;9707;49.158;8.632;2023-03-21T00:20:29;100661.91;;;20.87;34.32
19150;BME280;9707;49.158;8.632;2023-03-21T00:22:54;100670.88;;;20.87;34.34
19150;BME280;9707;49.158;8.632;2023-03-21T00:25:19;100659.31;;;20.85;34.21
19150;BME280;9707;49.158;8.632;2023-03-21T00:27:45;100656.59;;;20.85;34.38
19150;BME280;9707;49.158;8.632;2023-03-21T00:30:11;100654.88;;;20.84;34.26
19150;BME280;9707;49.158;8.632;2023-03-21T00:32:36;100664.81;;;20.84;34.23
19150;BME280;9707;49.158;8.632;2023-03-21T00:35:01;100652.28;;;20.83;34.32
19150;BME280;9707;49.158;8.632;2023-03-21T00:37:26;100649.69;;;20.81;34.38
19150;BME280;9707;49.158;8.632;2023-03-21T00:39:52;100648.81;;;20.81;34.51
19150;BME280;9707;49.158;8.632;2023-03-21T00:42:18;100644.25;;;20.81;34.29
19150;BME280;9707;49.158;8.632;2023-03-21T00:44:43;100643.38;;;20.81;34.35
19150;BME280;9707;49.158;8.632;2023-03-21T00:47:11;100638.84;;;20.81;34.33
19150;BME280;9707;49.158;8.632;2023-03-21T00:49:36;100642.53;;;20.80;34.39
19150;BME280;9707;49.158;8.632;2023-03-21T00:52:08;100638.97;;;20.80;34.50
19150;BME280;9707;49.158;8.632;2023-03-21T00:54:34;100628.25;;;20.78;34.44
19150;BME280;9707;49.158;8.632;2023-03-21T00:57:01;100634.53;;;20.79;34.01
19150;BME280;9707;49.158;8.632;2023-03-21T00:59:27;100635.53;;;20.78;34.29
19150;BME280;9707;49.158;8.632;2023-03-21T01:01:52;100628.38;;;20.77;34.45
19150;BME280;9707;49.158;8.632;2023-03-21T01:04:18;100630.22;;;20.76;34.55
19150;BME280;9707;49.158;8.632;2023-03-21T01:06:43;100626.63;;;20.76;34.25
19150;BME280;9707;49.158;8.632;2023-03-21T01:09:20;100623.91;;;20.76;34.36
19150;BME280;9707;49.158;8.632;2023-03-21T01:11:47;100625.78;;;20.75;34.40
19150;BME280;9707;49.158;8.632;2023-03-21T01:14:14;100617.78;;;20.74;34.36
19150;BME280;9707;49.158;8.632;2023-03-21T01:16:39;100618.75;;;20.73;34.40
19150;BME280;9707;49.158;8.632;2023-03-21T01:19:07;100616.06;;;20.73;34.42
19150;BME280;9707;49.158;8.632;2023-03-21T01:21:33;100613.34;;;20.73;34.40
19150;BME280;9707;49.158;8.632;2023-03-21T01:23:58;100615.19;;;20.72;34.55
19150;BME280;9707;49.158;8.632;2023-03-21T01:26:26;100613.34;;;20.73;34.49
19150;BME280;9707;49.158;8.632;2023-03-21T01:28:52;100619.75;;;20.72;34.59
19150;BME280;9707;49.158;8.632;2023-03-21T01:31:17;100617.03;;;20.72;34.65
19150;BME280;9707;49.158;8.632;2023-03-21T01:33:43;100618.97;;;20.70;34.57
19150;BME280;9707;49.158;8.632;2023-03-21T01:36:14;100612.59;;;20.71;34.38
19150;BME280;9707;49.158;8.632;2023-03-21T01:38:41;100611.84;;;20.69;34.50
19150;BME280;9707;49.158;8.632;2023-03-21T01:41:14;100606.44;;;20.69;34.60
19150;BME280;9707;49.158;8.632;2023-03-21T01:43:42;100604.72;;;20.68;34.53
19150;BME280;9707;49.158;8.632;2023-03-21T01:49:10;100601.25;;;20.66;34.42
19150;BME280;9707;49.158;8.632;2023-03-21T01:51:49;100601.38;;;20.64;34.58
19150;BME280;9707;49.158;8.632;2023-03-21T01:54:21;100595.09;;;20.64;34.48
19150;BME280;9707;49.158;8.632;2023-03-21T01:56:49;100595.09;;;20.64;34.72
19150;BME280;9707;49.158;8.632;2023-03-21T01:59:20;100589.69;;;20.64;34.74
19150;BME280;9707;49.158;8.632;2023-03-21T02:01:48;100586.97;;;20.64;34.65
19150;BME280;9707;49.158;8.632;2023-03-21T02:04:15;100586.09;;;20.63;34.80
19150;BME280;9707;49.158;8.632;2023-03-21T02:06:48;100592.41;;;20.64;34.76
19150;BME280;9707;49.158;8.632;2023-03-21T02:09:18;100590.66;;;20.63;34.77
19150;BME280;9707;49.158;8.632;2023-03-21T02:11:46;100574.44;;;20.63;34.92
19150;BME280;9707;49.158;8.632;2023-03-21T02:14:15;100586.97;;;20.64;34.90
19150;BME280;9707;49.158;8.632;2023-03-21T02:16:49;100588.69;;;20.65;35.08
19150;BME280;9707;49.158;8.632;2023-03-21T02:22:16;100570.75;;;20.64;34.78
19150;BME280;9707;49.158;8.632;2023-03-21T02:25:03;100568.13;;;20.62;34.82
19150;BME280;9707;49.158;8.632;2023-03-21T02:27:47;100565.53;;;20.61;34.65
19150;BME280;9707;49.158;8.632;2023-03-21T02:38:51;100554.00;;;20.59;34.63
19150;BME280;9707;49.158;8.632;2023-03-21T02:41:49;100558.53;;;20.58;34.82
19150;BME280;9707;49.158;8.632;2023-03-21T02:44:28;100554.97;;;20.58;34.81
19150;BME280;9707;49.158;8.632;2023-03-21T02:47:21;100561.38;;;20.57;34.64
19150;BME280;9707;49.158;8.632;2023-03-21T02:49:50;100551.66;;;20.54;34.78
19150;BME280;9707;49.158;8.632;2023-03-21T02:52:22;100558.91;;;20.54;34.74
19150;BME280;9707;49.158;8.632;2023-03-21T02:54:50;100567.00;;;20.54;34.78
19150;BME280;9707;49.158;8.632;2023-03-21T02:57:17;100573.41;;;20.53;34.70
19150;BME280;9707;49.158;8.632;2023-03-21T02:59:45;100566.28;;;20.52;34.69
19150;BME280;9707;49.158;8.632;2023-03-21T03:02:10;100562.59;;;20.53;34.89
19150;BME280;9707;49.158;8.632;2023-03-21T03:04:36;100558.91;;;20.54;34.78
19150;BME280;9707;49.158;8.632;2023-03-21T03:07:24;100557.19;;;20.53;34.94
19150;BME280;9707;49.158;8.632;2023-03-21T03:10:11;100560.00;;;20.51;34.94
19150;BME280;9707;49.158;8.632;2023-03-21T03:15:31;100549.28;;;20.50;35.03
19150;BME280;9707;49.158;8.632;2023-03-21T03:18:40;100547.44;;;20.50;34.87
19150;BME280;9707;49.158;8.632;2023-03-21T03:27:12;100540.53;;;20.46;34.94
19150;BME280;9707;49.158;8.632;2023-03-21T03:29:40;100550.53;;;20.46;35.17
19150;BME280;9707;49.158;8.632;2023-03-21T03:32:17;100541.41;;;20.47;35.17
19150;BME280;9707;49.158;8.632;2023-03-21T03:34:48;100540.44;;;20.48;35.05
19150;BME280;9707;49.158;8.632;2023-03-21T03:37:18;100540.44;;;20.48;34.96
19150;BME280;9707;49.158;8.632;2023-03-21T03:39:52;100553.97;;;20.48;34.98
19150;BME280;9707;49.158;8.632;2023-03-21T03:42:28;100540.44;;;20.48;34.81
19150;BME280;9707;49.158;8.632;2023-03-21T03:44:56;100540.44;;;20.48;34.94
19150;BME280;9707;49.158;8.632;2023-03-21T03:47:43;100545.84;;;20.48;35.04
19150;BME280;9707;49.158;8.632;2023-03-21T03:50:17;100535.13;;;20.46;35.05
19150;BME280;9707;49.158;8.632;2023-03-21T03:52:48;100529.72;;;20.46;34.88
19150;BME280;9707;49.158;8.632;2023-03-21T03:55:17;100532.53;;;20.45;34.87
19150;BME280;9707;49.158;8.632;2023-03-21T03:57:46;100532.53;;;20.45;34.83
19150;BME280;9707;49.158;8.632;2023-03-21T04:00:14;100535.13;;;20.46;34.93
19150;BME280;9707;49.158;8.632;2023-03-21T04:02:40;100536.00;;;20.47;35.07
19150;BME280;9707;49.158;8.632;2023-03-21T04:05:06;100532.31;;;20.48;35.11
19150;BME280;9707;49.158;8.632;2023-03-21T04:07:31;100537.72;;;20.48;35.02
19150;BME280;9707;49.158;8.632;2023-03-21T04:09:57;100536.00;;;20.47;34.92
19150;BME280;9707;49.158;8.632;2023-03-21T04:12:23;100536.00;;;20.47;35.04
19150;BME280;9707;49.158;8.632;2023-03-21T04:14:48;100548.53;;;20.48;35.03
19150;BME280;9707;49.158;8.632;2023-03-21T04:17:14;100535.13;;;20.46;34.89
19150;BME280;9707;49.158;8.632;2023-03-21T04:19:39;100536.00;;;20.47;35.05
19150;BME280;9707;49.158;8.632;2023-03-21T04:22:05;100534.28;;;20.46;34.90
19150;BME280;9707;49.158;8.632;2023-03-21T04:24:30;100530.69;;;20.45;34.98
19150;BME280;9707;49.158;8.632;2023-03-21T04:26:58;100542.41;;;20.46;35.16
19150;BME280;9707;49.158;8.632;2023-03-21T04:29:23;100538.81;;;20.45;35.31
19150;BME280;9707;49.158;8.632;2023-03-21T04:31:49;100530.59;;;20.47;35.44
19150;BME280;9707;49.158;8.632;2023-03-21T04:34:14;100531.44;;;20.47;35.32
19150;BME280;9707;49.158;8.632;2023-03-21T04:36:39;100531.31;;;20.49;35.19
19150;BME280;9707;49.158;8.632;2023-03-21T04:39:11;100526.91;;;20.48;35.00
19150;BME280;9707;49.158;8.632;2023-03-21T04:41:41;100526.91;;;20.48;35.03
19150;BME280;9707;49.158;8.632;2023-03-21T04:44:07;100520.59;;;20.47;35.03
19150;BME280;9707;49.158;8.632;2023-03-21T04:46:33;100527.00;;;20.46;35.08
19150;BME280;9707;49.158;8.632;2023-03-21T04:48:59;100528.88;;;20.46;35.28
19150;BME280;9707;49.158;8.632;2023-03-21T04:51:25;100529.72;;;20.46;35.34
19150;BME280;9707;49.158;8.632;2023-03-21T04:53:50;100528.88;;;20.46;35.09
19150;BME280;9707;49.158;8.632;2023-03-21T04:56:17;100521.72;;;20.45;35.05
19150;BME280;9707;49.158;8.632;2023-03-21T04:58:42;100520.00;;;20.44;35.05
19150;BME280;9707;49.158;8.632;2023-03-21T05:01:07;100520.97;;;20.43;35.17
19150;BME280;9707;49.158;8.632;2023-03-21T05:03:33;100529.97;;;20.43;35.01
19150;BME280;9707;49.158;8.632;2023-03-21T05:06:02;100524.66;;;20.42;35.15
19150;BME280;9707;49.158;8.632;2023-03-21T05:08:27;100518.28;;;20.43;35.05
19150;BME280;9707;49.158;8.632;2023-03-21T05:10:52;100521.97;;;20.42;35.58
19150;BME280;9707;49.158;8.632;2023-03-21T05:13:18;100520.00;;;20.44;35.44
19150;BME280;9707;49.158;8.632;2023-03-21T05:15:43;100520.00;;;20.44;35.07
19150;BME280;9707;49.158;8.632;2023-03-21T05:18:08;100520.00;;;20.44;35.17
19150;BME280;9707;49.158;8.632;2023-03-21T05:20:40;100518.28;;;20.43;34.91
19150;BME280;9707;49.158;8.632;2023-03-21T05:23:09;100516.56;;;20.42;35.17
19150;BME280;9707;49.158;8.632;2023-03-21T05:25:37;100519.25;;;20.42;35.31
19150;BME280;9707;49.158;8.632;2023-03-21T05:28:04;100512.88;;;20.43;35.02
19150;BME280;9707;49.158;8.632;2023-03-21T05:30:30;100510.25;;;20.41;35.33
19150;BME280;9707;49.158;8.632;2023-03-21T05:32:55;100516.56;;;20.42;35.33
19150;BME280;9707;49.158;8.632;2023-03-21T05:35:20;100508.53;;;20.40;35.27
19150;BME280;9707;49.158;8.632;2023-03-21T05:37:46;100520.25;;;20.41;35.42
19150;BME280;9707;49.158;8.632;2023-03-21T05:40:11;100526.63;;;20.40;35.24
19150;BME280;9707;49.158;8.632;2023-03-21T05:42:36;100518.50;;;20.40;35.34
19150;BME280;9707;49.158;8.632;2023-03-21T05:45:02;100533.00;;;20.39;35.24
19150;BME280;9707;49.158;8.632;2023-03-21T05:47:27;100522.19;;;20.39;35.24
19150;BME280;9707;49.158;8.632;2023-03-21T05:49:53;100519.59;;;20.37;35.35
19150;BME280;9707;49.158;8.632;2023-03-21T05:52:18;100523.28;;;20.36;35.31
19150;BME280;9707;49.158;8.632;2023-03-21T05:54:43;100519.47;;;20.39;35.48
19150;BME280;9707;49.158;8.632;2023-03-21T05:57:09;100530.19;;;20.40;35.48
19150;BME280;9707;49.158;8.632;2023-03-21T05:59:34;100521.09;;;20.41;35.25
19150;BME280;9707;49.158;8.632;2023-03-21T06:02:00;100523.78;;;20.41;35.30
19150;BME280;9707;49.158;8.632;2023-03-21T06:04:25;100524.66;;;20.42;35.48
19150;BME280;9707;49.158;8.632;2023-03-21T06:06:51;100518.28;;;20.43;35.29
19150;BME280;9707;49.158;8.632;2023-03-21T06:09:20;100520.97;;;20.43;35.39
19150;BME280;9707;49.158;8.632;2023-03-21T06:11:48;100519.00;;;20.45;35.43
19150;BME280;9707;49.158;8.632;2023-03-21T06:14:15;100525.28;;;20.45;35.13
19150;BME280;9707;49.158;8.632;2023-03-21T06:16:40;100524.41;;;20.45;35.17
19150;BME280;9707;49.158;8.632;2023-03-21T06:19:06;100521.84;;;20.43;34.79
19150;BME280;9707;49.158;8.632;2023-03-21T06:21:31;100519.38;;;20.40;34.70
19150;BME280;9707;49.158;8.632;2023-03-21T06:23:56;100526.09;;;20.35;34.69
19150;BME280;9707;49.158;8.632;2023-03-21T06:26:22;100530.03;;;20.31;34.54
19150;BME280;9707;49.158;8.632;2023-03-21T06:28:51;100525.84;;;20.27;34.82
19150;BME280;9707;49.158;8.632;2023-03-21T06:31:17;100530.50;;;20.25;34.89
19150;BME280;9707;49.158;8.632;2023-03-21T06:33:42;100533.34;;;20.23;34.96
19150;BME280;9707;49.158;8.632;2023-03-21T06:36:11;100536.16;;;20.22;34.89
19150;BME280;9707;49.158;8.632;2023-03-21T06:38:36;100533.66;;;20.19;34.63
19150;BME280;9707;49.158;8.632;2023-03-21T06:41:05;100535.75;;;20.15;35.00
19150;BME280;9707;49.158;8.632;2023-03-21T06:43:31;100539.31;;;20.16;35.12
19150;BME280;9707;49.158;8.632;2023-03-21T06:45:57;100535.53;;;20.18;35.75
19150;BME280;9707;49.158;8.632;2023-03-21T06:48:23;100536.16;;;20.22;35.62
19150;BME280;9707;49.158;8.632;2023-03-21T06:50:49;100542.19;;;20.25;35.42
19150;BME280;9707;49.158;8.632;2023-03-21T06:53:14;100544.78;;;20.27;35.20
19150;BME280;9707;49.158;8.632;2023-03-21T06:55:40;100543.91;;;20.26;35.38
19150;BME280;9707;49.158;8.632;2023-03-21T06:58:05;100540.34;;;20.26;35.52
19150;BME280;9707;49.158;8.632;2023-03-21T07:00:30;100548.47;;;20.26;35.32
19150;BME280;9707;49.158;8.632;2023-03-21T07:02:56;100550.19;;;20.27;35.41
19150;BME280;9707;49.158;8.632;2023-03-21T07:05:22;100539.38;;;20.27;35.04
19150;BME280;9707;49.158;8.632;2023-03-21T07:07:47;100538.38;;;20.28;35.25
19150;BME280;9707;49.158;8.632;2023-03-21T07:10:12;100533.97;;;20.27;35.00
19150;BME280;9707;49.158;8.632;2023-03-21T07:12:38;100537.66;;;20.26;35.17
19150;BME280;9707;49.158;8.632;2023-03-21T07:15:05;100538.50;;;20.26;35.36
19150;BME280;9707;49.158;8.632;2023-03-21T07:17:31;100530.28;;;20.28;35.40
19150;BME280;9707;49.158;8.632;2023-03-21T07:19:57;100537.41;;;20.29;35.24
19150;BME280;9707;49.158;8.632;2023-03-21T07:22:22;100536.66;;;20.27;34.98
19150;BME280;9707;49.158;8.632;2023-03-21T07:24:47;100535.78;;;20.26;34.90
19150;BME280;9707;49.158;8.632;2023-03-21T07:27:14;100529.75;;;20.23;35.03
19150;BME280;9707;49.158;8.632;2023-03-21T07:29:39;100532.47;;;20.23;34.99
19150;BME280;9707;49.158;8.632;2023-03-21T07:32:05;100525.44;;;20.20;35.11
19150;BME280;9707;49.158;8.632;2023-03-21T07:34:31;100529.03;;;20.21;34.99
19150;BME280;9707;49.158;8.632;2023-03-21T07:36:58;100533.56;;;20.20;34.87
19150;BME280;9707;49.158;8.632;2023-03-21T07:39:23;100529.03;;;20.21;34.80
19150;BME280;9707;49.158;8.632;2023-03-21T07:41:48;100521.75;;;20.21;34.82
19150;BME280;9707;49.158;8.632;2023-03-21T07:44:13;100524.34;;;20.23;34.76
19150;BME280;9707;49.158;8.632;2023-03-21T07:46:40;100529.66;;;20.24;34.93
19150;BME280;9707;49.158;8.632;2023-03-21T07:49:05;100527.66;;;20.26;34.80
19150;BME280;9707;49.158;8.632;2023-03-21T07:51:32;100527.44;;;20.29;34.79
19150;BME280;9707;49.158;8.632;2023-03-21T07:53:59;100526.34;;;20.32;34.30
19150;BME280;9707;49.158;8.632;2023-03-21T07:56:25;100528.19;;;20.31;34.57
19150;BME280;9707;49.158;8.632;2023-03-21T07:58:50;100536.94;;;20.35;34.56
19150;BME280;9707;49.158;8.632;2023-03-21T08:01:15;100524.16;;;20.37;34.22
19150;BME280;9707;49.158;8.632;2023-03-21T08:03:40;100525.00;;;20.37;34.15
19150;BME280;9707;49.158;8.632;2023-03-21T08:06:07;100534.72;;;20.40;34.44
19150;BME280;9707;49.158;8.632;2023-03-21T08:08:33;100527.38;;;20.42;34.41
19150;BME280;9707;49.158;8.632;2023-03-21T08:10:58;100528.88;;;20.46;34.23
19150;BME280;9707;49.158;8.632;2023-03-21T08:13:23;100537.94;;;20.45;34.46
19150;BME280;9707;49.158;8.632;2023-03-21T08:15:50;100540.66;;;20.45;33.78
19150;BME280;9707;49.158;8.632;2023-03-21T08:18:15;100539.81;;;20.44;33.76
19150;BME280;9707;49.158;8.632;2023-03-21T08:20:40;100527.88;;;20.47;33.74
19150;BME280;9707;49.158;8.632;2023-03-21T08:23:06;100530.47;;;20.48;34.31
19150;BME280;9707;49.158;8.632;2023-03-21T08:25:31;100531.94;;;20.52;34.03
19150;BME280;9707;49.158;8.632;2023-03-21T08:27:57;100522.72;;;20.55;34.13
19150;BME280;9707;49.158;8.632;2023-03-21T08:30:24;100526.91;;;20.59;34.05
19150;BME280;9707;49.158;8.632;2023-03-21T08:32:50;100531.34;;;20.60;34.03
19150;BME280;9707;49.158;8.632;2023-03-21T08:35:17;100525.72;;;20.63;34.00
19150;BME280;9707;49.158;8.632;2023-03-21T08:37:43;100530.88;;;20.66;34.21
19150;BME280;9707;49.158;8.632;2023-03-21T08:40:12;100523.50;;;20.68;33.81
19150;BME280;9707;49.158;8.632;2023-03-21T08:42:38;100526.09;;;20.69;33.47
19150;BME280;9707;49.158;8.632;2023-03-21T08:45:05;100526.09;;;20.69;33.45
19150;BME280;9707;49.158;8.632;2023-03-21T08:47:31;100522.53;;;20.69;33.18
19150;BME280;9707;49.158;8.632;2023-03-21T08:49:57;100526.94;;;20.70;33.31
19150;BME280;9707;49.158;8.632;2023-03-21T08:52:23;100526.84;;;20.71;33.39
19150;BME280;9707;49.158;8.632;2023-03-21T08:54:49;100531.16;;;20.74;34.03
19150;BME280;9707;49.158;8.632;2023-03-21T08:57:15;100526.22;;;20.79;33.93
19150;BME280;9707;49.158;8.632;2023-03-21T08:59:40;100522.31;;;20.83;33.53
19150;BME280;9707;49.158;8.632;2023-03-21T09:02:06;100530.06;;;20.87;33.33
19150;BME280;9707;49.158;8.632;2023-03-21T09:04:31;100524.44;;;20.90;33.35
19150;BME280;9707;49.158;8.632;2023-03-21T09:06:56;100519.66;;;20.94;33.45
19150;BME280;9707;49.158;8.632;2023-03-21T09:09:22;100520.25;;;20.97;33.32
19150;BME280;9707;49.158;8.632;2023-03-21T09:11:47;100515.44;;;21.01;33.03
19150;BME280;9707;49.158;8.632;2023-03-21T09:14:12;100520.63;;;21.04;33.15
19150;BME280;9707;49.158;8.632;2023-03-21T09:16:38;100518.66;;;21.06;32.97
19150;BME280;9707;49.158;8.632;2023-03-21T09:19:03;100523.13;;;21.07;32.82
19150;BME280;9707;49.158;8.632;2023-03-21T09:21:29;100522.13;;;21.08;32.89
19150;BME280;9707;49.158;8.632;2023-03-21T09:23:55;100520.13;;;21.10;32.51
19150;BME280;9707;49.158;8.632;2023-03-21T09:26:24;100521.84;;;21.11;32.46
19150;BME280;9707;49.158;8.632;2023-03-21T09:28:49;100521.63;;;21.14;32.53
19150;BME280;9707;49.158;8.632;2023-03-21T09:31:16;100518.69;;;21.17;32.16
19150;BME280;9707;49.158;8.632;2023-03-21T09:33:50;100522.00;;;21.20;32.23
19150;BME280;9707;49.158;8.632;2023-03-21T09:36:16;100527.44;;;21.20;32.39
19150;BME280;9707;49.158;8.632;2023-03-21T09:38:44;100523.59;;;21.23;32.52
19150;BME280;9707;49.158;8.632;2023-03-21T09:49:00;100517.69;;;21.29;32.16
19150;BME280;9707;49.158;8.632;2023-03-21T09:51:39;100516.69;;;21.30;32.44
19150;BME280;9707;49.158;8.632;2023-03-21T09:54:37;100526.44;;;21.32;32.07
19150;BME280;9707;49.158;8.632;2023-03-21T09:57:13;100516.47;;;21.33;31.68
19150;BME280;9707;49.158;8.632;2023-03-21T09:59:40;100524.31;;;21.36;31.95
19150;BME280;9707;49.158;8.632;2023-03-21T10:02:39;100519.66;;;21.38;31.85
19150;BME280;9707;49.158;8.632;2023-03-21T10:05:24;100526.69;;;21.40;32.02
19150;BME280;9707;49.158;8.632;2023-03-21T10:07:55;100526.28;;;21.45;32.04
19150;BME280;9707;49.158;8.632;2023-03-21T10:10:26;100520.63;;;21.48;31.79
19150;BME280;9707;49.158;8.632;2023-03-21T10:12:54;100524.78;;;21.52;31.64
19150;BME280;9707;49.158;8.632;2023-03-21T10:15:23;100520.97;;;21.54;31.45
19150;BME280;9707;49.158;8.632;2023-03-21T10:17:59;100520.75;;;21.57;31.68
19150;BME280;9707;49.158;8.632;2023-03-21T10:20:29;100516.03;;;21.59;31.64
19150;BME280;9707;49.158;8.632;2023-03-21T10:22:56;100513.09;;;21.62;31.58
19150;BME280;9707;49.158;8.632;2023-03-21T10:25:46;100512.84;;;21.65;31.58
19150;BME280;9707;49.158;8.632;2023-03-21T10:28:20;100510.00;;;21.67;31.61
19150;BME280;9707;49.158;8.632;2023-03-21T10:33:17;100501.84;;;21.67;31.58
19150;BME280;9707;49.158;8.632;2023-03-21T10:35:49;100494.59;;;21.67;31.69
19150;BME280;9707;49.158;8.632;2023-03-21T10:38:17;100500.66;;;21.71;31.66
19150;BME280;9707;49.158;8.632;2023-03-21T10:40:44;100491.53;;;21.72;31.61
19150;BME280;9707;49.158;8.632;2023-03-21T10:45:50;100484.16;;;21.74;31.60
19150;BME280;9707;49.158;8.632;2023-03-21T10:48:16;100483.16;;;21.75;30.93
19150;BME280;9707;49.158;8.632;2023-03-21T10:50:46;100483.16;;;21.75;31.13
19150;BME280;9707;49.158;8.632;2023-03-21T10:53:38;100481.31;;;21.75;30.67
19150;BME280;9707;49.158;8.632;2023-03-21T10:56:06;100473.03;;;21.77;30.54
19150;BME280;9707;49.158;8.632;2023-03-21T10:58:37;100474.78;;;21.78;30.25
19150;BME280;9707;49.158;8.632;2023-03-21T11:01:06;100475.63;;;21.78;30.17
19150;BME280;9707;49.158;8.632;2023-03-21T11:03:38;100470.19;;;21.78;30.46
19150;BME280;9707;49.158;8.632;2023-03-21T11:06:15;100472.91;;;21.78;30.51
19150;BME280;9707;49.158;8.632;2023-03-21T11:08:46;100469.19;;;21.79;30.50
19150;BME280;9707;49.158;8.632;2023-03-21T11:11:23;100468.22;;;21.80;30.71
19150;BME280;9707;49.158;8.632;2023-03-21T11:14:01;100469.94;;;21.81;30.67
19150;BME280;9707;49.158;8.632;2023-03-21T11:16:36;100466.38;;;21.81;30.77
19150;BME280;9707;49.158;8.632;2023-03-21T11:19:13;100474.50;;;21.81;30.73
19150;BME280;9707;49.158;8.632;2023-03-21T11:21:39;100463.66;;;21.81;30.85
19150;BME280;9707;49.158;8.632;2023-03-21T11:24:10;100469.94;;;21.81;31.01
19150;BME280;9707;49.158;8.632;2023-03-21T11:26:37;100467.84;;;21.85;31.00
19150;BME280;9707;49.158;8.632;2023-03-21T11:29:16;100465.84;;;21.87;31.09
19150;BME280;9707;49.158;8.632;2023-03-21T11:31:44;100464.72;;;21.89;30.84
19150;BME280;9707;49.158;8.632;2023-03-21T11:34:25;100460.28;;;21.88;30.70
19150;BME280;9707;49.158;8.632;2023-03-21T11:36:57;100453.03;;;21.89;30.86
19150;BME280;9707;49.158;8.632;2023-03-21T11:39:37;100447.50;;;21.90;30.80
19150;BME280;9707;49.158;8.632;2023-03-21T11:42:41;100438.34;;;21.91;30.74
19150;BME280;9707;49.158;8.632;2023-03-21T11:45:14;100429.22;;;21.92;30.50
19150;BME280;9707;49.158;8.632;2023-03-21T11:47:39;100437.22;;;21.94;30.45
19150;BME280;9707;49.158;8.632;2023-03-21T11:50:15;100421.81;;;21.94;30.24
19150;BME280;9707;49.158;8.632;2023-03-21T11:52:51;100431.53;;;21.97;30.24
19150;BME280;9707;49.158;8.632;2023-03-21T11:55:33;100432.41;;;21.97;29.83
19150;BME280;9707;49.158;8.632;2023-03-21T11:58:15;100427.81;;;21.98;29.94
19150;BME280;9707;49.158;8.632;2023-03-21T12:00:53;100435.84;;;21.99;30.09
19150;BME280;9707;49.158;8.632;2023-03-21T12:03:37;100433.00;;;22.01;30.39
19150;BME280;9707;49.158;8.632;2023-03-21T12:06:18;100425.47;;;22.04;30.86
19150;BME280;9707;49.158;8.632;2023-03-21T12:11:32;100417.31;;;22.04;30.53
19150;BME280;9707;49.158;8.632;2023-03-21T12:14:08;100403.63;;;22.06;30.65
19150;BME280;9707;49.158;8.632;2023-03-21T12:19:45;100403.38;;;22.09;30.44
19150;BME280;9707;49.158;8.632;2023-03-21T12:24:56;100400.25;;;22.13;30.46
19150;BME280;9707;49.158;8.632;2023-03-21T12:38:17;100380.34;;;22.24;30.04
19150;BME280;9707;49.158;8.632;2023-03-21T12:40:54;100376.63;;;22.25;30.26
19150;BME280;9707;49.158;8.632;2023-03-21T12:43:41;100373.63;;;22.28;30.44
19150;BME280;9707;49.158;8.632;2023-03-21T12:46:15;100372.50;;;22.30;30.09
19150;BME280;9707;49.158;8.632;2023-03-21T12:48:50;100362.41;;;22.32;29.98
19150;BME280;9707;49.158;8.632;2023-03-21T12:51:23;100365.00;;;22.34;30.10
19150;BME280;9707;49.158;8.632;2023-03-21T12:53:56;100353.97;;;22.35;29.96
19150;BME280;9707;49.158;8.632;2023-03-21T12:56:32;100352.84;;;22.38;30.11
19150;BME280;9707;49.158;8.632;2023-03-21T12:59:07;100348.16;;;22.40;29.92
19150;BME280;9707;49.158;8.632;2023-03-21T13:01:37;100346.16;;;22.42;30.22
19150;BME280;9707;49.158;8.632;2023-03-21T13:04:29;100343.22;;;22.45;29.94
19150;BME280;9707;49.158;8.632;2023-03-21T13:06:59;100341.34;;;22.45;29.95
19150;BME280;9707;49.158;8.632;2023-03-21T13:09:39;100338.38;;;22.48;29.59
19150;BME280;9707;49.158;8.632;2023-03-21T13:12:19;100340.97;;;22.50;29.83
19150;BME280;9707;49.158;8.632;2023-03-21T13:15:01;100340.66;;;22.53;29.96
19150;BME280;9707;49.158;8.632;2023-03-21T13:17:35;100337.69;;;22.56;29.81
19150;BME280;9707;49.158;8.632;2023-03-21T13:20:52;100341.00;;;22.59;29.97
19150;BME280;9707;49.158;8.632;2023-03-21T13:23:21;100324.69;;;22.59;29.64
19150;BME280;9707;49.158;8.632;2023-03-21T13:25:48;100323.69;;;22.60;29.55
19150;BME280;9707;49.158;8.632;2023-03-21T13:28:34;100319.84;;;22.63;29.38
19150;BME280;9707;49.158;8.632;2023-03-21T13:31:23;100316.28;;;22.62;29.43
19150;BME280;9707;49.158;8.632;2023-03-21T13:33:51;100318.88;;;22.64;29.33
19150;BME280;9707;49.158;8.632;2023-03-21T13:36:23;100308.72;;;22.66;29.28
19150;BME280;9707;49.158;8.632;2023-03-21T13:38:50;100309.44;;;22.68;29.21
19150;BME280;9707;49.158;8.632;2023-03-21T13:41:20;100310.19;;;22.70;29.36
19150;BME280;9707;49.158;8.632;2023-03-21T13:43:54;100306.16;;;22.74;29.33
19150;BME280;9707;49.158;8.632;2023-03-21T13:48:59;100301.19;;;22.79;29.34
19150;BME280;9707;49.158;8.632;2023-03-21T13:56:48;100294.22;;;22.86;29.28
19150;BME280;9707;49.158;8.632;2023-03-21T13:59:51;100292.19;;;22.88;29.19
19150;BME280;9707;49.158;8.632;2023-03-21T14:02:29;100293.22;;;22.87;29.27
19150;BME280;9707;49.158;8.632;2023-03-21T14:04:59;100293.91;;;22.89;29.08
19150;BME280;9707;49.158;8.632;2023-03-21T14:07:28;100286.63;;;22.89;29.06
19150;BME280;9707;49.158;8.632;2023-03-21T14:09:59;100282.91;;;22.90;29.17
19150;BME280;9707;49.158;8.632;2023-03-21T14:12:28;100283.78;;;22.91;28.73
19150;BME280;9707;49.158;8.632;2023-03-21T14:14:58;100279.06;;;22.93;28.91
19150;BME280;9707;49.158;8.632;2023-03-21T14:17:30;100268.19;;;22.93;28.82